Time;durP1;ratioP1;P1;durP2;ratioP2;P2;SDS_P1;SDS_P2;PMS_P1;PMS_P2;Temp;Humidity;BMP_temperature;BMP_pressure;BME280_temperature;BME280_humidity;BME280_pressure;Samples;Min_cycle;Max_cycle;Signal;HPM_P1;HPM_P2
2022/05/12 00:00:22;;;;;;;3.30;2.90;;;;;;;17.41;57.87;98848.86;103724;1300;23551;-28
2022/05/12 00:02:51;;;;;;;3.60;2.40;;;;;;;17.53;57.45;98844.64;103807;1300;22840;-25
2022/05/12 00:05:20;;;;;;;2.80;2.40;;;;;;;17.49;57.62;98845.96;103691;1300;24240;-24
2022/05/12 00:07:50;;;;;;;4.30;3.10;;;;;;;17.51;57.53;98839.96;103791;1300;22508;-26
2022/05/12 00:10:21;;;;;;;3.80;2.60;;;;;;;17.50;57.56;98838.79;103785;1300;23011;-24
2022/05/12 00:12:51;;;;;;;3.70;3.40;;;;;;;17.50;57.65;98838.54;103784;1300;22790;-24
2022/05/12 00:15:22;;;;;;;3.90;2.90;;;;;;;17.52;57.57;98837.20;103640;1300;24217;-28
2022/05/12 00:17:51;;;;;;;6.70;3.20;;;;;;;17.42;57.86;98836.11;103706;1300;23739;-28
2022/05/12 00:20:21;;;;;;;11.10;3.10;;;;;;;17.40;58.03;98828.48;103771;1300;24234;-28
2022/05/12 00:22:50;;;;;;;2.80;2.20;;;;;;;17.39;57.91;98834.73;103756;1300;23734;-28
2022/05/12 00:25:22;;;;;;;12.50;2.60;;;;;;;17.35;58.20;98828.55;103717;1300;22499;-28
2022/05/12 00:27:51;;;;;;;14.60;3.50;;;;;;;17.33;58.30;98829.34;103764;1300;22745;-24
2022/05/12 00:30:20;;;;;;;5.70;3.00;;;;;;;17.24;58.41;98830.70;103727;1300;22900;-28
2022/05/12 00:32:49;;;;;;;5.20;2.50;;;;;;;17.19;58.64;98829.08;103699;1299;24230;-24
2022/05/12 00:35:18;;;;;;;4.70;3.10;;;;;;;17.13;58.92;98827.09;103755;1300;23633;-24
2022/05/12 00:37:47;;;;;;;3.90;2.70;;;;;;;17.08;59.14;98825.73;103760;1300;25310;-28
2022/05/12 00:40:16;;;;;;;3.50;2.30;;;;;;;17.10;59.12;98826.14;103728;1300;23739;-28
2022/05/12 00:42:52;;;;;;;4.20;2.80;;;;;;;17.03;59.27;98826.65;103664;1300;22749;-28
2022/05/12 00:45:21;;;;;;;5.20;3.10;;;;;;;16.99;59.51;98823.79;103711;1300;23992;-26
2022/05/12 00:47:50;;;;;;;6.00;3.30;;;;;;;16.95;59.65;98826.55;103775;1300;24211;-30
2022/05/12 00:50:20;;;;;;;3.60;3.10;;;;;;;16.87;59.96;98825.36;103759;1299;22616;-30
2022/05/12 00:52:50;;;;;;;4.50;2.80;;;;;;;16.81;60.20;98826.92;103691;1300;24399;-30
2022/05/12 00:55:23;;;;;;;3.10;2.90;;;;;;;16.77;60.36;98822.52;103699;1300;24249;-25
2022/05/12 00:57:54;;;;;;;;;;;;;;;16.70;60.61;98821.36;103734;1300;23526;-28
2022/05/12 01:00:23;;;;;;;4.70;2.40;;;;;;;16.68;60.70;98813.31;103687;1300;25325;-27
2022/05/12 01:02:55;;;;;;;6.00;2.60;;;;;;;16.76;60.42;98818.71;103675;1300;22623;-29
2022/05/12 01:05:24;;;;;;;3.70;2.90;;;;;;;16.71;60.66;98811.77;103770;1300;25210;-29
2022/05/12 01:07:55;;;;;;;3.00;2.30;;;;;;;16.74;60.63;98810.58;103743;1300;22787;-28
2022/05/12 01:10:24;;;;;;;3.30;3.00;;;;;;;16.74;60.54;98815.58;103730;1300;24256;-28
2022/05/12 01:12:53;;;;;;;3.50;3.10;;;;;;;16.75;60.57;98812.06;103714;1300;23059;-23
2022/05/12 01:15:24;;;;;;;9.90;2.40;;;;;;;16.81;60.29;98813.08;103605;1300;24400;-25
2022/05/12 01:18:00;;;;;;;3.00;2.60;;;;;;;16.86;60.15;98810.77;103723;1300;25397;-24
2022/05/12 01:20:29;;;;;;;3.00;2.70;;;;;;;16.90;60.00;98812.00;103725;1300;25197;-30
2022/05/12 01:23:01;;;;;;;7.80;2.90;;;;;;;16.92;59.87;98813.66;103531;1300;22502;-28
2022/05/12 01:25:30;;;;;;;2.60;2.20;;;;;;;17.01;59.58;98811.10;103720;1299;23921;-30
2022/05/12 01:27:59;;;;;;;3.40;2.80;;;;;;;16.99;59.63;98812.17;103733;1300;23828;-23
2022/05/12 01:30:28;;;;;;;2.70;2.50;;;;;;;17.09;59.27;98811.63;103753;1300;25098;-28
2022/05/12 01:32:57;;;;;;;4.20;3.30;;;;;;;17.14;59.10;98810.77;103735;1299;23606;-24
2022/05/12 01:35:26;;;;;;;3.90;2.50;;;;;;;17.14;59.13;98808.77;103584;1300;23622;-28
2022/05/12 01:37:55;;;;;;;4.20;3.20;;;;;;;17.15;59.02;98806.56;103644;1300;24255;-28
2022/05/12 01:40:25;;;;;;;3.90;3.00;;;;;;;17.12;59.13;98804.18;103785;1300;24245;-25
2022/05/12 01:42:54;;;;;;;12.10;2.60;;;;;;;17.10;59.15;98803.73;103591;1301;22500;-26
2022/05/12 01:45:23;;;;;;;7.70;2.40;;;;;;;17.07;59.30;98803.80;103747;1300;24282;-30
2022/05/12 01:47:52;;;;;;;8.50;3.00;;;;;;;16.99;59.58;98806.64;103783;1300;24242;-24
2022/05/12 01:50:22;;;;;;;3.80;2.90;;;;;;;16.93;59.76;98803.85;103655;1300;24237;-30
2022/05/12 01:52:50;;;;;;;7.70;2.90;;;;;;;16.90;59.92;98803.80;103546;1300;22517;-28
2022/05/12 01:55:20;;;;;;;2.80;2.50;;;;;;;16.86;60.10;98796.92;103757;1300;23641;-24
2022/05/12 01:57:49;;;;;;;3.80;2.60;;;;;;;16.83;60.19;98798.04;103778;1300;23867;-30
2022/05/12 02:00:21;;;;;;;3.10;2.20;;;;;;;16.77;60.38;98796.16;103768;1300;23900;-24
2022/05/12 02:02:50;;;;;;;4.20;3.10;;;;;;;16.69;60.62;98789.85;103742;1300;24154;-28
2022/05/12 02:05:19;;;;;;;3.30;2.40;;;;;;;16.67;60.77;98785.44;103710;1300;24345;-25
2022/05/12 02:07:49;;;;;;;2.20;2.00;;;;;;;16.67;60.81;98784.23;103701;1300;22492;-24
2022/05/12 02:10:21;;;;;;;4.60;2.80;;;;;;;16.65;60.87;98786.05;103747;1300;24295;-25
2022/05/12 02:12:50;;;;;;;4.50;2.70;;;;;;;16.71;60.73;98788.96;103747;1300;23590;-24
2022/05/12 02:15:19;;;;;;;3.70;2.40;;;;;;;16.73;60.64;98790.44;103768;1300;22601;-27
2022/05/12 02:17:49;;;;;;;4.30;2.40;;;;;;;16.82;60.31;98786.94;103665;1300;22508;-25
2022/05/12 02:20:19;;;;;;;4.70;2.80;;;;;;;16.83;60.28;98783.44;103767;1300;23603;-29
2022/05/12 02:22:49;;;;;;;5.70;2.40;;;;;;;16.77;60.42;98789.44;103718;1300;26163;-28
2022/05/12 02:25:18;;;;;;;10.50;3.00;;;;;;;16.70;60.55;98786.27;103678;1300;24218;-25
2022/05/12 02:27:47;;;;;;;3.20;2.20;;;;;;;16.67;60.57;98783.31;103660;1300;22496;-28
2022/05/12 02:30:18;;;;;;;2.90;2.40;;;;;;;16.66;60.62;98786.06;103742;1300;23748;-25
2022/05/12 02:32:47;;;;;;;2.70;2.30;;;;;;;16.67;60.45;98783.80;103766;1300;23908;-28
2022/05/12 02:35:16;;;;;;;2.90;2.50;;;;;;;16.74;60.19;98784.63;103729;1300;22809;-26
2022/05/12 02:37:46;;;;;;;2.70;2.30;;;;;;;16.66;60.51;98785.09;103758;1300;22776;-30
2022/05/12 02:40:17;;;;;;;2.70;2.60;;;;;;;16.61;60.75;98784.32;103737;1300;24010;-24
2022/05/12 02:42:46;;;;;;;2.20;2.00;;;;;;;16.54;60.80;98785.41;103730;1300;22661;-26
2022/05/12 02:45:15;;;;;;;6.40;1.90;;;;;;;16.53;60.81;98783.61;103701;1300;25114;-25
2022/05/12 02:47:44;;;;;;;3.70;2.90;;;;;;;16.51;60.93;98784.66;103730;1300;25122;-28
2022/05/12 02:50:15;;;;;;;3.10;2.30;;;;;;;16.51;61.00;98779.89;103781;1300;22605;-28
2022/05/12 02:52:44;;;;;;;15.10;2.80;;;;;;;16.52;60.99;98778.14;103795;1300;25266;-30
2022/05/12 02:55:14;;;;;;;7.40;2.20;;;;;;;16.50;60.98;98782.98;103768;1300;23600;-26
2022/05/12 02:57:43;;;;;;;2.80;2.50;;;;;;;16.49;60.99;98781.17;103735;1300;25076;-28
2022/05/12 03:00:16;;;;;;;6.30;2.40;;;;;;;16.44;61.10;98783.10;103726;1300;23612;-28
2022/05/12 03:02:45;;;;;;;13.40;3.20;;;;;;;16.37;61.31;98790.05;103746;1300;24989;-28
2022/05/12 03:05:15;;;;;;;3.50;2.80;;;;;;;16.37;61.36;98794.28;103718;1300;23825;-26
2022/05/12 03:07:44;;;;;;;2.90;1.90;;;;;;;16.32;61.41;98794.98;103665;1300;22622;-26
2022/05/12 03:10:13;;;;;;;3.30;2.60;;;;;;;16.22;61.74;98797.64;103747;1300;25015;-24
2022/05/12 03:12:42;;;;;;;4.00;2.90;;;;;;;16.39;61.54;98798.80;103759;1300;23734;-28
2022/05/12 03:15:12;;;;;;;3.20;2.80;;;;;;;16.16;62.01;98792.68;103755;1300;22502;-28
2022/05/12 03:17:43;;;;;;;5.80;3.10;;;;;;;16.33;61.84;98797.64;103743;1300;24944;-28
2022/05/12 03:20:15;;;;;;;3.10;2.80;;;;;;;16.35;61.54;98796.48;103738;1300;23731;-28
2022/05/12 03:22:44;;;;;;;5.60;2.60;;;;;;;16.16;62.30;98797.15;103788;1300;24211;-25
2022/05/12 03:25:14;;;;;;;2.50;2.30;;;;;;;16.07;62.69;98798.23;103748;1299;23595;-26
2022/05/12 03:27:44;;;;;;;3.40;2.90;;;;;;;16.04;62.66;98796.00;103750;1300;22502;-28
2022/05/12 03:30:15;;;;;;;3.00;2.20;;;;;;;16.02;62.74;98803.77;103731;1300;23628;-28
2022/05/12 03:32:45;;;;;;;3.40;2.60;;;;;;;16.11;62.61;98803.76;103719;1299;23818;-28
2022/05/12 03:35:14;;;;;;;4.70;1.90;;;;;;;16.27;62.56;98797.78;103761;1300;25088;-28
2022/05/12 03:37:43;;;;;;;3.00;2.80;;;;;;;16.50;62.05;98795.88;103726;1300;22499;-23
2022/05/12 03:40:13;;;;;;;3.30;2.60;;;;;;;16.61;61.65;98793.20;103757;1300;22631;-28
2022/05/12 03:42:42;;;;;;;2.30;1.80;;;;;;;16.83;61.17;98798.73;103723;1300;22495;-29
2022/05/12 03:45:11;;;;;;;5.40;2.40;;;;;;;17.13;59.94;98792.86;103650;1300;22794;-25
2022/05/12 03:47:44;;;;;;;2.90;2.20;;;;;;;17.20;59.98;98797.60;103760;1300;22501;-27
2022/05/12 03:50:16;;;;;;;2.30;2.10;;;;;;;17.43;59.28;98796.70;103684;1300;25008;-25
2022/05/12 03:52:47;;;;;;;4.20;2.10;;;;;;;17.81;58.10;98793.82;103745;1299;24999;-29
2022/05/12 03:55:18;;;;;;;5.60;2.90;;;;;;;17.86;57.84;98799.67;103747;1300;25467;-25
2022/05/12 03:57:47;;;;;;;4.80;2.60;;;;;;;18.13;56.89;98788.88;103639;1300;25313;-25
2022/05/12 04:00:22;;;;;;;7.70;3.10;;;;;;;18.28;56.77;98789.90;103598;1300;23771;-23
2022/05/12 04:02:50;;;;;;;3.70;1.70;;;;;;;18.51;55.86;98785.14;103690;1300;23806;-28
2022/05/12 04:05:20;;;;;;;5.10;2.60;;;;;;;18.89;54.93;98792.77;103699;1300;24340;-25
2022/05/12 04:07:51;;;;;;;2.70;2.00;;;;;;;19.07;54.55;98789.45;103738;1300;25137;-25
2022/05/12 04:10:21;;;;;;;2.80;2.40;;;;;;;19.17;54.22;98791.51;103715;1300;22510;-30
2022/05/12 04:12:50;;;;;;;3.80;3.00;;;;;;;19.23;53.91;98787.98;103771;1300;23609;-30
2022/05/12 04:15:20;;;;;;;2.40;2.20;;;;;;;19.01;54.32;98789.45;103777;1300;22598;-27
2022/05/12 04:17:54;;;;;;;30.20;2.50;;;;;;;18.74;54.99;98787.52;103303;1300;515546;-27
2022/05/12 04:20:24;;;;;;;5.10;2.90;;;;;;;18.60;55.48;98791.73;103743;1300;22499;-28
2022/05/12 04:22:53;;;;;;;3.80;1.90;;;;;;;18.41;56.28;98788.35;103695;1300;23791;-28
2022/05/12 04:25:22;;;;;;;3.20;2.10;;;;;;;18.36;56.40;98792.40;103781;1300;22511;-28
2022/05/12 04:27:51;;;;;;;2.70;2.40;;;;;;;18.26;56.61;98789.28;103703;1300;22495;-25
2022/05/12 04:30:24;;;;;;;2.50;2.20;;;;;;;18.29;56.84;98790.40;103744;1300;24230;-28
2022/05/12 04:32:53;;;;;;;2.80;2.50;;;;;;;18.32;56.60;98789.11;103747;1298;24310;-25
2022/05/12 04:35:23;;;;;;;2.60;2.20;;;;;;;18.57;56.06;98793.55;103714;1300;22496;-28
2022/05/12 04:37:54;;;;;;;2.30;1.80;;;;;;;18.63;55.96;98788.15;103698;1300;24310;-24
2022/05/12 04:40:26;;;;;;;3.90;2.70;;;;;;;18.61;55.98;98788.54;103710;1300;25412;-30
2022/05/12 04:42:57;;;;;;;2.90;2.50;;;;;;;18.96;54.95;98792.02;103809;1300;22628;-27
2022/05/12 04:45:27;;;;;;;2.20;2.00;;;;;;;19.05;55.03;98795.59;103752;1300;25408;-30
2022/05/12 04:47:56;;;;;;;3.40;2.00;;;;;;;19.44;54.02;98799.20;103742;1300;25347;-27
2022/05/12 04:50:28;;;;;;;3.10;2.60;;;;;;;19.54;53.60;98793.30;103794;1300;24292;-30
2022/05/12 04:52:57;;;;;;;6.00;1.90;;;;;;;19.55;53.35;98797.27;103679;1300;23470;-27
2022/05/12 04:55:27;;;;;;;6.90;1.50;;;;;;;19.63;53.48;98796.70;103779;1300;24243;-28
2022/05/12 04:57:57;;;;;;;5.80;2.30;;;;;;;19.81;52.99;98793.13;103608;1300;22507;-24
2022/05/12 05:00:28;;;;;;;3.60;2.10;;;;;;;19.55;53.46;98797.70;103667;1300;22732;-25
2022/05/12 05:02:57;;;;;;;2.80;2.20;;;;;;;19.76;53.01;98796.05;103836;1300;22866;-28
2022/05/12 05:05:26;;;;;;;2.60;1.30;;;;;;;19.98;52.23;98797.05;103531;1300;24206;-28
2022/05/12 05:07:56;;;;;;;3.10;2.30;;;;;;;19.79;53.11;98800.27;103817;1300;24285;-28
2022/05/12 05:10:25;;;;;;;5.60;1.90;;;;;;;19.89;52.63;98798.48;103708;1300;24288;-28
2022/05/12 05:12:54;;;;;;;3.60;2.60;;;;;;;19.65;53.30;98802.41;103585;1300;22770;-28
2022/05/12 05:15:24;;;;;;;3.20;2.30;;;;;;;19.92;52.56;98802.95;103693;1300;25117;-24
2022/05/12 05:17:53;;;;;;;3.30;2.40;;;;;;;20.39;51.83;98801.27;103708;1300;22762;-31
2022/05/12 05:20:24;;;;;;;2.20;1.80;;;;;;;20.19;52.45;98811.61;103648;1300;24211;-28
2022/05/12 05:22:54;;;;;;;4.40;2.60;;;;;;;20.54;51.59;98810.53;103726;1300;22507;-28
2022/05/12 05:25:23;;;;;;;8.10;2.50;;;;;;;20.72;50.89;98808.20;103676;1300;25330;-28
2022/05/12 05:27:54;;;;;;;3.70;2.40;;;;;;;20.86;50.92;98814.66;103724;1300;23813;-25
2022/05/12 05:30:24;;;;;;;5.40;2.20;;;;;;;21.23;50.12;98810.52;103896;1300;23364;-28
2022/05/12 05:32:54;;;;;;;2.80;2.30;;;;;;;21.06;50.05;98806.95;103755;1300;22502;-28
2022/05/12 05:35:23;;;;;;;7.20;1.90;;;;;;;20.95;50.72;98821.29;103719;1298;24348;-28
2022/05/12 05:37:53;;;;;;;3.60;1.30;;;;;;;21.46;49.00;98824.23;103693;1300;24351;-23
2022/05/12 05:40:25;;;;;;;12.60;2.60;;;;;;;21.35;49.64;98828.66;103681;1300;24243;-32
2022/05/12 05:42:55;;;;;;;1.50;1.40;;;;;;;21.87;48.41;98827.08;103749;1300;24460;-26
2022/05/12 05:45:24;;;;;;;2.70;2.50;;;;;;;21.93;47.80;98834.27;103712;1300;24181;-25
2022/05/12 05:47:57;;;;;;;2.00;1.40;;;;;;;21.88;48.05;98839.40;103715;1300;22499;-28
2022/05/12 05:50:29;;;;;;;3.30;1.80;;;;;;;21.97;48.07;98840.10;103666;1300;25389;-28
2022/05/12 05:55:32;;;;;;;1.30;1.30;;;;;;;21.68;48.32;98853.91;103687;1299;22507;-25
2022/05/12 05:58:02;;;;;;;8.70;2.30;;;;;;;21.88;47.60;98853.93;103684;1300;24334;-28
2022/05/12 06:00:31;;;;;;;4.50;2.20;;;;;;;21.67;48.44;98857.09;103699;1300;24993;-30
2022/05/12 06:03:01;;;;;;;2.10;1.90;;;;;;;21.57;49.18;98864.95;103722;1300;22516;-30
2022/05/12 06:05:31;;;;;;;2.10;1.90;;;;;;;21.79;48.84;98861.87;103709;1300;23637;-27
2022/05/12 06:08:01;;;;;;;1.60;1.50;;;;;;;21.61;49.50;98869.75;103706;1300;22918;-28
2022/05/12 06:10:30;;;;;;;2.40;1.90;;;;;;;21.83;48.56;98868.13;103751;1300;24233;-24
2022/05/12 06:12:59;;;;;;;10.20;1.80;;;;;;;22.14;47.06;98869.08;103748;1300;24986;-25
2022/05/12 06:15:28;;;;;;;6.00;1.90;;;;;;;21.54;48.38;98876.77;103721;1300;24000;-25
2022/05/12 06:17:57;;;;;;;2.20;1.70;;;;;;;21.49;49.26;98875.05;103709;1300;25143;-28
2022/05/12 06:20:26;;;;;;;4.50;2.00;;;;;;;22.04;48.10;98873.97;103738;1300;23623;-28
2022/05/12 06:22:56;;;;;;;10.30;2.20;;;;;;;22.42;47.98;98869.30;103728;1300;25044;-25
2022/05/12 06:25:25;;;;;;;3.10;2.20;;;;;;;22.91;46.25;98863.32;103779;1300;23765;-26
2022/05/12 06:27:54;;;;;;;1.80;1.50;;;;;;;22.89;45.53;98870.60;103750;1300;22728;-29
2022/05/12 06:30:23;;;;;;;1.50;1.20;;;;;;;22.68;46.02;98871.95;103722;1300;24376;-30
2022/05/12 06:32:55;;;;;;;2.60;1.80;;;;;;;22.45;46.89;98879.30;103696;1300;22868;-28
2022/05/12 06:35:25;;;;;;;9.00;1.60;;;;;;;22.57;46.37;98873.59;103720;1300;24199;-25
2022/05/12 06:37:54;;;;;;;7.10;1.60;;;;;;;22.51;45.85;98877.32;103718;1300;24347;-28
2022/05/12 06:40:23;;;;;;;1.40;1.30;;;;;;;22.78;45.27;98871.79;103719;1300;23799;-28
2022/05/12 06:42:53;;;;;;;1.40;1.10;;;;;;;22.67;45.18;98883.58;103747;1300;22498;-24
2022/05/12 06:45:22;;;;;;;1.80;1.40;;;;;;;22.73;45.82;98878.65;103693;1300;24294;-27
2022/05/12 06:47:52;;;;;;;1.80;0.90;;;;;;;22.87;44.92;98877.15;103714;1300;22489;-27
2022/05/12 06:50:23;;;;;;;6.70;2.40;;;;;;;22.96;44.86;98873.38;103754;1300;23908;-27
2022/05/12 06:52:53;;;;;;;3.30;2.20;;;;;;;22.71;45.92;98879.77;103711;1300;24055;-26
2022/05/12 06:55:24;;;;;;;2.00;1.50;;;;;;;22.86;45.80;98889.25;103786;1299;23948;-28
2022/05/12 06:57:54;;;;;;;2.50;1.60;;;;;;;23.14;44.62;98887.42;103750;1300;25424;-24
2022/05/12 07:00:23;;;;;;;7.90;1.80;;;;;;;23.11;45.42;98890.42;103736;1300;24231;-27
2022/05/12 07:02:52;;;;;;;2.20;1.70;;;;;;;23.11;45.45;98887.90;103751;1299;22997;-30
2022/05/12 07:05:23;;;;;;;1.30;0.90;;;;;;;23.79;43.90;98893.29;103608;1300;22502;-27
2022/05/12 07:07:52;;;;;;;4.50;1.20;;;;;;;23.93;44.26;98897.23;103751;1300;25267;-28
2022/05/12 07:10:24;;;;;;;1.20;1.00;;;;;;;23.96;44.27;98898.30;103729;1300;24360;-25
2022/05/12 07:12:53;;;;;;;1.80;1.50;;;;;;;23.84;43.82;98902.23;103722;1300;23593;-28
2022/05/12 07:15:25;;;;;;;2.40;1.60;;;;;;;24.32;43.06;98892.02;103686;1300;23612;-28
2022/05/12 07:17:55;;;;;;;1.60;1.20;;;;;;;24.38;41.79;98893.39;103786;1300;24247;-30
2022/05/12 07:28:04;;;;;;;1.40;1.30;;;;;;;24.79;40.59;98884.65;103727;1300;23822;-29
2022/05/12 07:31:00;;;;;;;2.90;1.10;;;;;;;24.78;39.94;98898.02;103743;1300;25226;-28
2022/05/12 07:33:22;;;;;;;1.80;1.30;;;;;;;24.85;39.47;98905.86;103730;1300;22495;-27
2022/05/12 07:35:51;;;;;;;1.00;0.80;;;;;;;24.70;41.06;98903.75;103726;1300;23539;-28
2022/05/12 07:38:20;;;;;;;2.60;1.30;;;;;;;24.30;42.55;98913.91;103711;1300;23599;-28
2022/05/12 07:40:49;;;;;;;1.70;1.20;;;;;;;24.36;42.98;98908.59;103659;1300;24243;-23
2022/05/12 07:43:18;;;;;;;4.60;1.40;;;;;;;24.74;40.56;98910.02;103797;1300;22602;-26
2022/05/12 07:45:48;;;;;;;2.10;1.30;;;;;;;24.44;41.59;98914.23;103710;1300;24220;-30
2022/05/12 07:48:17;;;;;;;5.60;1.00;;;;;;;24.32;41.33;98911.84;103525;1300;24099;-25
2022/05/12 07:50:46;;;;;;;2.10;0.70;;;;;;;24.83;39.66;98919.97;103834;1300;25111;-28
2022/05/12 07:53:15;;;;;;;10.70;1.20;;;;;;;24.80;40.38;98923.54;103770;1300;22722;-30
2022/05/12 07:55:44;;;;;;;1.90;1.40;;;;;;;24.55;43.14;98924.71;103711;1300;24237;-26
2022/05/12 07:58:13;;;;;;;2.40;1.60;;;;;;;25.10;40.12;98929.52;103743;1300;24396;-30
2022/05/12 08:00:42;;;;;;;3.20;1.40;;;;;;;25.22;39.30;98928.47;103772;1300;24509;-28
2022/05/12 08:03:11;;;;;;;2.10;1.40;;;;;;;25.37;38.72;98923.89;103744;1300;22608;-28
2022/05/12 08:05:40;;;;;;;2.80;1.00;;;;;;;25.14;39.64;98933.14;103774;1300;24307;-24
2022/05/12 08:08:09;;;;;;;1.90;0.90;;;;;;;25.21;39.02;98933.57;103679;1300;24256;-25
2022/05/12 08:10:39;;;;;;;1.50;1.00;;;;;;;25.08;39.06;98931.59;103514;1300;24240;-23
2022/05/12 08:13:14;;;;;;;3.20;0.90;;;;;;;25.21;39.29;98932.67;103728;1300;22502;-24
2022/05/12 08:15:44;;;;;;;3.00;2.10;;;;;;;25.32;38.79;98942.59;103736;1300;24441;-28
2022/05/12 08:18:16;;;;;;;2.10;1.30;;;;;;;25.04;40.87;98949.05;103720;1300;22506;-28
2022/05/12 08:20:45;;;;;;;1.50;1.00;;;;;;;25.26;39.30;98958.40;103591;1300;23530;-28
2022/05/12 08:23:15;;;;;;;2.80;1.00;;;;;;;25.13;38.97;98961.95;103795;1300;22523;-24
2022/05/12 08:25:44;;;;;;;10.40;1.00;;;;;;;24.81;40.11;98967.11;103592;1300;24058;-28
2022/05/12 08:28:14;;;;;;;1.40;0.80;;;;;;;24.48;39.86;98962.82;103478;1300;22732;-26
2022/05/12 08:30:44;;;;;;;13.50;1.40;;;;;;;24.51;40.15;98970.90;103668;1300;25012;-27
2022/05/12 08:33:14;;;;;;;1.90;1.70;;;;;;;24.64;39.59;98974.06;103718;1300;25180;-28
2022/05/12 08:35:43;;;;;;;1.00;0.70;;;;;;;24.18;39.94;98979.82;103776;1300;23603;-30
2022/05/12 08:38:12;;;;;;;6.30;1.30;;;;;;;24.11;40.60;98985.30;103700;1300;22514;-24
2022/05/12 08:40:45;;;;;;;7.10;0.70;;;;;;;24.03;40.82;98981.36;103791;1300;24444;-25
2022/05/12 08:43:16;;;;;;;21.30;1.80;;;;;;;24.02;41.17;98993.81;103720;1300;23130;-25
2022/05/12 08:45:46;;;;;;;2.00;1.40;;;;;;;24.66;39.33;98997.73;103760;1299;22780;-24
2022/05/12 08:48:15;;;;;;;3.00;1.40;;;;;;;25.23;37.98;98984.91;103720;1300;22495;-29
2022/05/12 08:50:50;;;;;;;7.70;1.40;;;;;;;24.94;38.86;99006.73;103693;1300;23747;-29
2022/05/12 08:53:20;;;;;;;5.90;1.00;;;;;;;25.03;38.03;99005.64;103738;1300;25101;-29
2022/05/12 08:55:51;;;;;;;3.70;1.50;;;;;;;24.65;40.15;99013.36;103691;1299;23841;-29
2022/05/12 08:58:26;;;;;;;9.00;1.50;;;;;;;24.16;41.46;99009.94;103757;1300;23748;-28
2022/05/12 09:01:00;;;;;;;4.60;1.50;;;;;;;24.21;42.91;99029.69;103763;1300;24208;-25
2022/05/12 09:03:36;;;;;;;10.10;1.80;;;;;;;24.04;42.87;99036.33;103690;1300;23056;-29
2022/05/12 09:06:12;;;;;;;5.20;1.90;;;;;;;24.51;43.13;99044.88;103573;1300;24437;-28
2022/05/12 09:08:44;;;;;;;4.00;1.70;;;;;;;24.68;42.85;99052.59;103742;1300;22814;-24
2022/05/12 09:11:20;;;;;;;3.00;2.30;;;;;;;24.55;43.08;99045.48;103733;1300;24327;-27
2022/05/12 09:13:51;;;;;;;30.10;7.30;;;;;;;24.68;42.81;99048.36;103701;1300;24245;-28
2022/05/12 09:16:22;;;;;;;7.40;2.10;;;;;;;24.74;43.29;99064.68;103706;1300;23235;-25
2022/05/12 09:18:53;;;;;;;5.90;2.00;;;;;;;24.74;42.95;99068.80;103687;1300;25012;-25
2022/05/12 09:21:25;;;;;;;1.30;1.20;;;;;;;25.05;43.39;99074.65;103702;1300;25216;-25
2022/05/12 09:23:55;;;;;;;7.70;1.70;;;;;;;24.92;42.30;99071.66;103789;1300;24412;-25
2022/05/12 09:26:31;;;;;;;8.70;2.10;;;;;;;25.05;42.22;99077.34;103769;1300;25277;-28
2022/05/12 09:29:08;;;;;;;5.10;1.60;;;;;;;25.16;41.61;99082.05;103718;1300;23603;-28
2022/05/12 09:31:38;;;;;;;2.20;1.20;;;;;;;25.08;40.53;99072.51;103729;1300;23149;-25
2022/05/12 09:34:19;;;;;;;6.70;1.70;;;;;;;24.69;41.15;99075.68;103705;1300;23740;-28
2022/05/12 09:36:48;;;;;;;1.50;1.30;;;;;;;24.66;41.00;99075.89;103799;1300;22495;-24
2022/05/12 09:39:37;;;;;;;1.70;0.80;;;;;;;24.80;42.18;99089.70;103706;1300;22646;-25
2022/05/12 09:42:18;;;;;;;6.60;1.60;;;;;;;25.10;42.07;99087.36;103722;1300;23607;-24
2022/05/12 09:44:53;;;;;;;5.90;1.70;;;;;;;25.21;42.11;99085.26;103754;1300;24208;-28
2022/05/12 09:47:22;;;;;;;6.40;3.20;;;;;;;25.21;42.82;99092.80;103806;1300;24048;-24
2022/05/12 09:50:15;;;;;;;2.40;1.40;;;;;;;24.95;42.53;99097.66;103736;1300;22626;-28
2022/05/12 09:52:43;;;;;;;1.40;0.80;;;;;;;24.93;43.50;99103.73;103709;1300;25223;-27
2022/05/12 09:55:16;;;;;;;18.50;2.40;;;;;;;25.34;39.93;99097.79;103748;1300;22805;-24
2022/05/12 09:57:50;;;;;;;1.00;0.90;;;;;;;25.56;40.55;99113.01;103704;1300;23823;-26
2022/05/12 10:00:24;;;;;;;3.70;1.70;;;;;;;25.49;38.98;99111.70;103719;1300;24345;-25
2022/05/12 10:08:09;;;;;;;14.50;0.90;;;;;;;24.50;39.29;99108.05;103772;1300;24987;-25
2022/05/12 10:10:38;;;;;;;2.70;1.10;;;;;;;24.13;40.17;99125.81;103733;1300;22629;-29
2022/05/12 10:13:15;;;;;;;4.40;1.40;;;;;;;23.66;44.56;99141.07;103754;1300;25193;-24
2022/05/12 10:15:44;;;;;;;6.10;1.20;;;;;;;23.26;45.10;99135.60;103709;1300;24211;-28
2022/05/12 10:18:20;;;;;;;1.60;1.40;;;;;;;23.39;45.39;99139.75;103724;1300;24246;-28
2022/05/12 10:20:52;;;;;;;2.30;2.00;;;;;;;23.39;45.37;99144.14;103708;1300;24376;-28
2022/05/12 10:23:27;;;;;;;2.90;1.10;;;;;;;23.30;45.08;99151.19;103733;1299;22768;-28
2022/05/12 10:26:03;;;;;;;2.90;1.30;;;;;;;23.09;45.38;99159.49;103719;1300;23114;-28
2022/05/12 10:28:37;;;;;;;8.40;1.00;;;;;;;23.32;45.84;99147.59;103728;1300;24029;-28
2022/05/12 10:31:13;;;;;;;13.10;1.70;;;;;;;23.78;44.40;99156.52;103669;1300;24007;-24
2022/05/12 10:34:00;;;;;;;7.40;1.10;;;;;;;23.81;42.36;99157.32;103734;1300;25128;-28
2022/05/12 10:36:34;;;;;;;4.00;1.00;;;;;;;23.89;42.25;99149.73;103698;1300;22503;-24
2022/05/12 10:39:11;;;;;;;2.00;0.90;;;;;;;24.85;40.75;99143.60;103608;1300;22813;-24
2022/05/12 10:41:48;;;;;;;19.60;1.20;;;;;;;24.57;40.29;99155.48;103732;1300;24246;-26
2022/05/12 10:44:19;;;;;;;1.80;0.80;;;;;;;24.79;39.58;99154.37;103714;1300;22909;-28
2022/05/12 10:46:52;;;;;;;10.80;0.80;;;;;;;24.36;40.11;99157.33;103707;1300;24298;-28
2022/05/12 10:49:22;;;;;;;;;;;;;;;24.20;39.36;99171.45;103762;1300;24240;-28
2022/05/12 10:52:12;;;;;;;5.40;1.20;;;;;;;25.03;35.93;99147.95;103670;1300;25234;-28
2022/05/12 10:54:48;;;;;;;6.30;0.80;;;;;;;25.02;35.61;99158.39;103774;1300;23328;-24
2022/05/12 10:57:24;;;;;;;14.20;0.60;;;;;;;24.34;38.57;99173.83;103730;1300;24210;-24
2022/05/12 11:00:00;;;;;;;19.50;1.00;;;;;;;23.75;40.48;99186.16;103701;1300;22915;-24
2022/05/12 11:02:47;;;;;;;1.20;0.40;;;;;;;23.70;40.41;99181.11;103645;1300;24196;-24
2022/05/12 11:05:26;;;;;;;6.50;0.60;;;;;;;23.63;40.25;99187.59;103648;1300;22506;-24
2022/05/12 11:08:02;;;;;;;8.20;1.10;;;;;;;23.80;38.74;99183.58;103665;1300;24241;-30
2022/05/12 11:10:34;;;;;;;2.50;0.70;;;;;;;23.90;39.19;99188.40;103717;1300;23200;-28
2022/05/12 11:13:08;;;;;;;8.90;0.70;;;;;;;23.92;37.72;99192.64;103731;1300;23588;-24
2022/05/12 11:15:46;;;;;;;12.50;0.60;;;;;;;23.84;36.42;99179.11;103727;1300;24230;-28
2022/05/12 11:18:19;;;;;;;8.10;1.00;;;;;;;23.35;37.32;99183.42;103654;1300;24243;-28
2022/05/12 11:20:55;;;;;;;2.80;0.70;;;;;;;23.82;37.25;99191.64;103718;1300;24208;-24
2022/05/12 11:23:33;;;;;;;5.00;0.40;;;;;;;24.55;35.26;99194.77;103524;1300;24360;-24
2022/05/12 11:26:09;;;;;;;9.90;0.60;;;;;;;23.81;36.21;99209.20;103704;1300;24231;-25
2022/05/12 11:31:24;;;;;;;7.40;0.60;;;;;;;23.31;36.26;99208.40;103716;1300;24309;-25
2022/05/12 11:33:56;;;;;;;7.90;0.50;;;;;;;23.26;37.53;99214.23;103721;1300;24993;-25
2022/05/12 11:36:31;;;;;;;2.10;0.60;;;;;;;23.14;40.21;99214.90;103703;1300;24245;-28
2022/05/12 11:39:21;;;;;;;2.50;0.40;;;;;;;23.15;39.91;99212.67;103699;1300;24303;-25
2022/05/12 11:42:06;;;;;;;1.20;0.30;;;;;;;22.93;39.85;99205.72;103734;1300;22623;-25
2022/05/12 11:44:43;;;;;;;34.20;0.70;;;;;;;23.16;38.62;99210.46;103583;1300;25008;-25
2022/05/12 11:47:20;;;;;;;9.90;0.50;;;;;;;23.27;35.96;99204.52;103697;1300;24295;-27
2022/05/12 11:49:58;;;;;;;17.90;0.50;;;;;;;22.50;36.49;99221.83;103763;1300;24240;-27
2022/05/12 11:52:29;;;;;;;6.30;0.40;;;;;;;23.04;38.80;99233.30;103732;1300;23574;-29
2022/05/12 11:54:59;;;;;;;6.10;0.60;;;;;;;23.81;35.83;99227.31;103702;1300;25024;-24
2022/05/12 11:57:32;;;;;;;6.70;0.80;;;;;;;24.00;36.64;99229.20;103770;1300;22727;-24
2022/05/12 12:00:08;;;;;;;11.90;0.90;;;;;;;24.36;32.31;99210.41;103733;1300;23602;-24